Friday, May 25, 2018, 8:23 PM EDT
Back to Local

KMMU, Morristown Municipal

Location: Morristown, NJ, United States Lat: 40.8
Local Time: 8:23 PM EDT ( 0:23 GMT) Lon: -74.417
Time Zone: US/Eastern Elev: 187 ft

Show me the last for .
Show Decoded

2018-05-25 19:45 METAR KMMU 252345Z 23007KT 10SM FEW250 28/15 A2984 =
2018-05-25 18:45 METAR KMMU 252245Z 24010G14KT 10SM SKC 29/13 A2983 =
2018-05-25 17:45 METAR KMMU 252145Z 27019G21KT 10SM FEW060 30/12 A2984 =
2018-05-25 16:45 METAR KMMU 252045Z 23011G22KT 10SM SKC 30/13 A2986 =
2018-05-25 15:50 METAR KMMU 251950Z 23011G22KT 10SM FEW060 30/13 A2988 =
2018-05-25 14:50 METAR KMMU 251850Z 26012G21KT 10SM FEW250 30/12 A2990 =
2018-05-25 13:45 METAR KMMU 251745Z 24011G19KT 10SM FEW250 29/10 A2993 =
2018-05-25 12:45 METAR KMMU 251645Z 24011G19KT 10SM SKC 28/10 A2995 =
2018-05-25 11:45 METAR KMMU 251545Z 22010G17KT 10SM SKC 28/12 A2998 =
2018-05-25 10:55 METAR KMMU 251455Z 23007G15KT 10SM SKC 27/12 A2999 =
2018-05-25 09:45 METAR KMMU 251345Z 24010G15KT 10SM SKC 26/10 A3002 =
2018-05-25 08:45 METAR KMMU 251245Z 27006KT 10SM SKC 24/11 A3004 =
2018-05-25 07:45 METAR KMMU 251145Z 00000KT 10SM SKC 20/13 A3005 =
2018-05-25 06:45 METAR KMMU 251045Z 00000KT 10SM SKC 13/12 A3007 =
2018-05-25 06:35 METAR KMMU 251035Z AUTO 00000KT 10SM CLR 13/13 A3006 RMK AO2 =
2018-05-25 06:15 METAR KMMU 251015Z AUTO 00000KT 10SM CLR 13/12 A3006 RMK AO2 =
2018-05-25 05:55 METAR KMMU 250955Z AUTO 00000KT 10SM CLR 12/12 A3006 RMK AO2 =
2018-05-25 05:35 METAR KMMU 250935Z AUTO 00000KT 10SM CLR 12/12 A3006 RMK AO2 =
2018-05-25 05:15 METAR KMMU 250915Z AUTO 00000KT 10SM CLR 12/12 A3006 RMK AO2 =
2018-05-25 04:55 METAR KMMU 250855Z AUTO 00000KT 10SM CLR 13/12 A3006 RMK AO2 =
2018-05-25 04:35 METAR KMMU 250835Z AUTO 00000KT 10SM CLR 13/12 A3006 RMK AO2 =
2018-05-25 04:15 METAR KMMU 250815Z AUTO 00000KT 10SM CLR 13/12 A3006 RMK AO2 =
2018-05-25 03:55 METAR KMMU 250755Z AUTO 00000KT 10SM CLR 13/12 A3006 RMK AO2 =
2018-05-25 03:35 METAR KMMU 250735Z AUTO 00000KT 10SM CLR 14/12 A3006 RMK AO2 =
2018-05-25 03:15 METAR KMMU 250715Z AUTO 00000KT 10SM CLR 15/12 A3006 RMK AO2 =
2018-05-25 02:55 METAR KMMU 250655Z AUTO 00000KT 10SM CLR 16/12 A3006 RMK AO2 =
2018-05-25 02:35 METAR KMMU 250635Z AUTO 00000KT 10SM CLR 16/11 A3007 RMK AO2 =
2018-05-25 02:15 METAR KMMU 250615Z AUTO 00000KT 10SM CLR 17/11 A3008 RMK AO2 =
2018-05-25 01:55 METAR KMMU 250555Z AUTO 21004KT 10SM CLR 17/11 A3008 RMK AO2 =
2018-05-25 01:35 METAR KMMU 250535Z AUTO 22005KT 10SM CLR 17/11 A3009 RMK AO2 =
2018-05-25 01:15 METAR KMMU 250515Z AUTO 21003KT 10SM CLR 17/11 A3009 RMK AO2 =
2018-05-25 00:55 METAR KMMU 250455Z AUTO 00000KT 10SM CLR 18/10 A3009 RMK AO2 =
2018-05-25 00:35 METAR KMMU 250435Z AUTO 15003KT 10SM CLR 18/11 A3009 RMK AO2 =
2018-05-25 00:15 METAR KMMU 250415Z AUTO 16003KT 10SM CLR 18/11 A3010 RMK AO2 =
2018-05-24 23:55 METAR KMMU 250355Z AUTO 15003KT 10SM CLR 18/11 A3010 RMK AO2 =
2018-05-24 23:35 METAR KMMU 250335Z AUTO 00000KT 10SM CLR 19/10 A3009 RMK AO2 =
2018-05-24 23:15 METAR KMMU 250315Z AUTO 00000KT 10SM CLR 20/10 A3009 RMK AO2 =
2018-05-24 22:55 METAR KMMU 250255Z AUTO 20003KT 10SM CLR 20/10 A3009 RMK AO2 =
2018-05-24 22:35 METAR KMMU 250235Z AUTO 00000KT 10SM CLR 20/11 A3009 RMK AO2 =
2018-05-24 22:15 METAR KMMU 250215Z AUTO 00000KT 10SM CLR 20/12 A3009 RMK AO2 =
2018-05-24 21:45 METAR KMMU 250145Z 24004KT 10SM SKC 21/11 A3009 =
2018-05-24 20:45 METAR KMMU 250045Z 27004KT 10SM SKC 23/10 A3007 =

Support USWX by starting your Amazon purchase here.